Latest Weather Observations for Luncheon Hill

IDT60801

Issued at 6:02 pm EST Wednesday 31 August 2016 (issued every 30 minutes, with the page automatically refreshed every 10 minutes)

About weather observations | Map of weather stations | Latest weather observations for TAS | Other Formats
Station Details ID: 091259 Name: LUNCHEON HILL (FORESTRY) Lat: -41.15 Lon: 145.15 Height: 344.0 m
Data from the previous 72 hours. | See also: Recent months at Luncheon Hill
Date/Time
EST
Temp
°C
App
Temp
°C
Dew
Point
°C
Rel
Hum
%
Delta-T
°C
Wind Press
QNH
hPa
Press
MSL
hPa
Rain since
9am
mm
Dir  Spd
km/h
Gust
km/h
Spd
kts
Gust
kts
31/06:00pm 10.0 7.1 9.5 97 0.3 W 15 24 8 13 - - 4.4
31/05:30pm 10.3 7.4 9.7 96 0.3 WSW 15 26 8 14 - - 4.4
31/05:00pm 10.6 7.3 9.7 94 0.5 W 17 26 9 14 - - 4.0
31/04:30pm 11.4 8.4 10.5 94 0.5 W 17 32 9 17 - - 4.0
31/04:00pm 11.4 8.7 10.3 93 0.6 W 15 22 8 12 - - 4.0
31/03:30pm 12.3 8.7 11.7 96 0.3 WNW 22 35 12 19 - - 4.0
31/03:00pm 11.7 8.9 11.5 99 0.1 NW 17 24 9 13 - - 4.0
31/02:30pm 12.4 9.3 12.2 99 0.1 NW 20 30 11 16 - - 4.0
31/02:00pm 11.0 7.7 10.8 99 0.1 NW 19 24 10 13 - - 4.0
31/01:30pm 10.9 7.3 10.7 99 0.1 NW 20 26 11 14 - - 4.0
31/01:00pm 10.7 7.7 10.5 99 0.1 N 17 20 9 11 - - 3.8
31/12:30pm 11.0 8.4 10.8 99 0.1 N 15 19 8 10 - - 1.6
31/12:00pm 11.7 8.6 11.7 100 0.0 N 19 22 10 12 - - 1.6
31/11:30am 10.8 7.5 10.8 100 0.0 N 19 24 10 13 - - 1.6
31/11:00am 11.0 7.7 11.0 100 0.0 N 19 22 10 12 - - 1.6
31/10:30am 10.3 6.8 10.3 100 0.0 N 19 24 10 13 - - 1.6
31/10:00am 10.6 7.2 10.6 100 0.0 N 19 24 10 13 - - 1.6
31/09:30am 10.5 8.2 10.5 100 0.0 N 13 19 7 10 - - 1.0
31/09:00am 10.4 8.1 10.4 100 0.0 N 13 15 7 8 - - 9.8
31/08:30am 10.4 7.3 10.4 100 0.0 NNW 17 19 9 10 - - 9.8
31/08:00am 10.2 7.5 10.2 100 0.0 N 15 17 8 9 - - 9.8
31/07:30am 10.2 8.2 10.2 100 0.0 N 11 15 6 8 - - 9.8
31/07:00am 9.8 7.7 9.8 100 0.0 NNW 11 17 6 9 - - 9.8
31/06:30am 10.2 7.5 10.2 100 0.0 NW 15 20 8 11 - - 9.8
31/06:00am 10.4 7.7 10.4 100 0.0 NW 15 19 8 10 - - 9.8
31/05:30am 10.4 8.1 10.4 100 0.0 NW 13 17 7 9 - - 9.8
31/05:00am 10.4 8.1 10.4 100 0.0 NW 13 17 7 9 - - 9.8
31/04:30am 10.4 8.1 10.4 100 0.0 NW 13 19 7 10 - - 9.8
31/04:00am 10.3 8.0 10.3 100 0.0 NNW 13 17 7 9 - - 9.8
31/03:30am 10.2 7.1 10.2 100 0.0 N 17 20 9 11 - - 9.8
31/03:00am 9.8 6.5 9.7 99 0.1 NNE 17 20 9 11 - - 9.8
31/02:30am 9.5 6.2 9.4 99 0.1 NNE 17 22 9 12 - - 9.4
31/02:00am 9.4 5.5 9.3 99 0.1 NE 20 26 11 14 - - 9.0
31/01:30am 9.3 4.6 9.2 99 0.1 NE 24 32 13 17 - - 8.8
31/01:00am 9.1 3.9 9.0 99 0.0 NE 26 33 14 18 - - 8.4
31/12:30am 9.1 3.6 9.0 99 0.0 NE 28 33 15 18 - - 7.8
31/12:00am 9.0 3.1 8.9 99 0.0 NE 30 39 16 21 - - 7.4
 
Date/Time
EST
Temp
°C
App
Temp
°C
Dew
Point
°C
Rel
Hum
%
Delta-T
°C
Wind Press
QNH
hPa
Press
MSL
hPa
Rain since
9am
mm
Dir  Spd
km/h
Gust
km/h
Spd
kts
Gust
kts
30/11:30pm 8.9 3.3 8.8 99 0.0 NE 28 35 15 19 - - 6.8
30/11:00pm 8.9 2.4 8.8 99 0.0 NE 33 43 18 23 - - 6.6
30/10:30pm 8.7 2.7 8.6 99 0.0 NE 30 41 16 22 - - 6.0
30/10:00pm 8.5 2.4 8.4 99 0.0 ENE 30 41 16 22 - - 5.4
30/09:30pm 8.3 2.2 8.2 99 0.0 ENE 30 39 16 21 - - 4.6
30/09:00pm 8.3 1.6 8.2 99 0.0 ENE 33 44 18 24 - - 4.0
30/08:30pm 8.5 2.0 8.2 98 0.1 ENE 32 43 17 23 - - 3.8
30/08:00pm 8.7 2.6 8.4 98 0.1 ENE 30 37 16 20 - - 3.2
30/07:30pm 8.7 2.6 8.3 97 0.2 NE 30 39 16 21 - - 2.2
30/07:00pm 8.9 2.4 8.3 96 0.3 ENE 32 44 17 24 - - 1.0
30/06:30pm 9.3 2.9 8.4 94 0.4 NE 32 43 17 23 - - 0.2
30/06:00pm 9.8 3.4 8.6 92 0.6 NE 32 43 17 23 - - 0.0
30/05:30pm 10.2 3.7 8.8 91 0.7 NE 33 43 18 23 - - 0.0
30/05:00pm 10.5 4.8 8.3 86 1.1 ENE 28 41 15 22 - - 0.0
30/04:30pm 10.7 4.6 8.1 84 1.3 NE 30 39 16 21 - - 0.0
30/04:00pm 10.7 5.1 8.8 88 1.0 NE 28 41 15 22 - - 0.0
30/03:30pm 10.7 4.4 8.8 88 1.0 ENE 32 44 17 24 - - 0.0
30/03:00pm 10.8 5.2 8.7 87 1.1 ENE 28 37 15 20 - - 0.0
30/02:30pm 10.7 5.5 9.0 89 0.9 ENE 26 39 14 21 - - 0.0
30/02:00pm 10.6 4.3 9.0 90 0.8 NE 32 44 17 24 - - 0.0
30/01:30pm 10.5 2.9 8.9 90 0.8 NE 39 54 21 29 - - 0.0
30/01:00pm 10.7 3.1 9.0 89 0.9 NE 39 50 21 27 - - 0.0
30/12:30pm 10.9 4.0 9.0 88 1.0 NE 35 46 19 25 - - 0.0
30/12:00pm 10.5 4.1 8.6 88 1.0 NE 32 43 17 23 - - 0.0
30/11:34am 10.6 3.5 8.2 85 1.2 ENE 35 54 19 29 - - 0.0
30/11:30am 10.5 3.4 8.1 85 1.2 ENE 35 48 19 26 - - 0.0
30/11:00am 10.0 3.7 7.6 85 1.2 ENE 30 41 16 22 - - 0.0
30/10:30am 9.9 3.5 7.0 82 1.4 ENE 30 41 16 22 - - 0.0
30/10:00am 10.6 4.2 6.9 78 1.8 ENE 30 50 16 27 - - 0.0
30/09:54am 10.5 3.6 6.5 76 1.9 ENE 32 50 17 27 - - 0.0
30/09:30am 10.1 2.9 6.1 76 1.9 ENE 33 44 18 24 - - 0.0
30/09:09am 9.6 2.3 5.6 76 1.9 ENE 33 52 18 28 - - 0.0
30/09:00am 9.4 2.1 5.6 77 1.8 ENE 33 44 18 24 - - 0.0
30/08:30am 8.6 2.6 5.4 80 1.5 ENE 26 41 14 22 - - 0.0
30/08:00am 7.7 1.7 5.3 85 1.1 E 26 39 14 21 - - 0.0
30/07:30am 7.0 1.1 5.6 91 0.6 E 26 37 14 20 - - 0.0
30/07:00am 6.5 0.9 5.5 93 0.5 E 24 37 13 20 - - 0.0
30/06:30am 6.4 0.1 5.5 94 0.4 E 28 39 15 21 - - 0.0
30/06:00am 6.4 0.9 5.7 95 0.3 E 24 37 13 20 - - 0.0
30/05:30am 6.4 0.9 5.8 96 0.3 E 24 35 13 19 - - 0.0
30/05:00am 6.3 0.8 6.0 98 0.1 E 24 35 13 19 - - 0.0
30/04:30am 6.3 0.4 6.0 98 0.1 ESE 26 39 14 21 - - 0.0
30/04:00am 6.2 0.3 5.8 97 0.2 ENE 26 39 14 21 - - 0.0
30/03:30am 6.3 0.0 5.7 96 0.3 ENE 28 39 15 21 - - 0.0
30/03:00am 6.2 1.2 4.8 91 0.6 E 20 32 11 17 - - 0.0
30/02:30am 6.3 0.9 4.5 88 0.8 E 22 30 12 16 - - 0.0
30/02:00am 6.7 1.8 4.9 88 0.8 ENE 20 28 11 15 - - 0.0
30/01:30am 7.0 1.4 5.2 88 0.8 E 24 32 13 17 - - 0.0
30/01:00am 7.1 2.2 5.1 87 0.9 E 20 28 11 15 - - 0.0
30/12:30am 7.5 2.3 5.3 86 1.0 E 22 28 12 15 - - 0.0
30/12:00am 7.5 2.2 5.1 85 1.1 E 22 28 12 15 - - 0.0
 
Date/Time
EST
Temp
°C
App
Temp
°C
Dew
Point
°C
Rel
Hum
%
Delta-T
°C
Wind Press
QNH
hPa
Press
MSL
hPa
Rain since
9am
mm
Dir  Spd
km/h
Gust
km/h
Spd
kts
Gust
kts
29/11:30pm 7.7 2.9 5.5 86 1.0 ENE 20 24 11 13 - - 0.0
29/11:00pm 8.6 4.0 5.5 81 1.4 E 19 28 10 15 - - 0.0
29/10:30pm 7.5 2.4 6.0 90 0.7 ENE 22 28 12 15 - - 0.0
29/10:00pm 7.3 2.2 6.1 92 0.6 NE 22 26 12 14 - - 0.0
29/09:30pm 7.8 3.4 6.4 91 0.7 NE 19 20 10 11 - - 0.0
29/09:00pm 8.1 3.7 6.6 90 0.7 ENE 19 20 10 11 - - 0.0
29/08:30pm 8.3 4.0 6.8 90 0.7 ENE 19 22 10 12 - - 0.0
29/08:00pm 8.4 4.1 7.0 91 0.7 ENE 19 20 10 11 - - 0.0
29/07:30pm 8.5 4.5 6.6 88 0.9 NE 17 17 9 9 - - 0.0
29/07:00pm 9.2 5.7 7.2 87 1.0 ENE 15 17 8 9 - - 0.0
29/06:30pm 9.3 6.2 7.3 87 1.0 NNE 13 17 7 9 - - 0.0
29/06:00pm 10.1 7.1 7.5 84 1.3 N 13 15 7 8 - - 0.0
29/05:30pm 11.7 9.2 8.0 78 1.8 N 11 13 6 7 - - 0.0
29/05:00pm 12.8 9.9 8.1 73 2.4 NNW 13 15 7 8 - - 0.0
29/04:30pm 13.5 10.2 8.1 70 2.7 NNW 15 20 8 11 - - 0.0
29/04:00pm 14.7 11.5 8.6 67 3.1 N 15 19 8 10 - - 0.0
29/03:30pm 14.3 11.5 7.1 62 3.6 N 11 17 6 9 - - 0.0
29/03:00pm 14.8 11.9 8.3 65 3.3 N 13 20 7 11 - - 0.0
29/02:30pm 13.9 11.2 7.4 65 3.2 N 11 17 6 9 - - 0.0
29/02:00pm 13.9 11.3 7.9 67 3.0 NNE 11 17 6 9 - - 0.0
29/01:30pm 12.4 9.1 6.2 66 3.0 N 13 19 7 10 - - 0.0
29/01:00pm 11.0 7.6 3.8 61 3.3 NNE 11 15 6 8 - - 0.0
29/12:30pm 10.4 6.4 4.8 68 2.6 N 15 19 8 10 - - 0.0
29/12:00pm 9.1 6.2 4.5 73 2.1 NNE 9 11 5 6 - - 0.0
29/11:30am 8.8 5.9 1.5 60 3.1 E 6 9 3 5 - - 0.0
29/11:00am 7.8 5.2 3.1 72 2.0 ENE 6 7 3 4 - - 0.0
29/10:30am 7.7 4.7 2.0 67 2.4 W 7 11 4 6 - - 0.0
29/10:00am 6.5 4.2 2.8 77 1.6 SSW 4 9 2 5 - - 0.0
29/09:30am 6.4 3.2 0.5 66 2.4 S 7 9 4 5 - - 0.0
29/09:00am 6.3 2.3 0.6 67 2.3 S 11 13 6 7 - - 0.2
29/08:30am 4.1 1.0 1.1 81 1.2 SSE 7 17 4 9 - - 0.2
29/08:00am 3.9 -0.9 -0.1 75 1.5 SSE 15 15 8 8 - - 0.2
29/07:30am 2.6 -2.2 0.2 84 0.9 SSE 15 17 8 9 - - 0.2
29/07:00am 2.2 -2.6 0.1 86 0.8 SSW 15 17 8 9 - - 0.2
29/06:30am 3.0 -0.7 -0.1 80 1.2 SW 9 11 5 6 - - 0.2
29/06:00am 2.8 -0.3 -0.1 81 1.1 SSW 6 7 3 4 - - 0.2
29/05:30am 2.3 -2.5 0.2 86 0.8 S 15 17 8 9 - - 0.2
29/05:00am 1.8 -3.8 0.0 88 0.7 S 19 22 10 12 - - 0.2
29/04:30am 2.1 -3.1 -0.2 85 0.9 SSW 17 19 9 10 - - 0.2
29/04:00am 2.3 -2.5 0.0 85 0.9 SSW 15 17 8 9 - - 0.2
29/03:30am 2.8 -2.4 0.0 82 1.1 SSW 17 20 9 11 - - 0.2
29/03:00am 2.8 -2.8 0.2 83 1.0 SSW 19 22 10 12 - - 0.2
29/02:30am 2.7 -2.1 0.3 84 0.9 S 15 19 8 10 - - 0.2
29/02:00am 3.0 -1.8 0.4 83 1.0 SSW 15 19 8 10 - - 0.2
29/01:30am 1.9 -2.5 0.1 88 0.7 S 13 17 7 9 - - 0.2
29/01:00am 1.7 -3.5 -0.1 88 0.7 S 17 19 9 10 - - 0.2
29/12:30am 2.3 -2.6 -0.3 83 1.0 S 15 20 8 11 - - 0.2
29/12:00am 3.2 -2.1 -0.3 78 1.3 SSW 17 17 9 9 - - 0.2
 
Date/Time
EST
Temp
°C
App
Temp
°C
Dew
Point
°C
Rel
Hum
%
Delta-T
°C
Wind Press
QNH
hPa
Press
MSL
hPa
Rain since
9am
mm
Dir  Spd
km/h
Gust
km/h
Spd
kts
Gust
kts
28/11:30pm 2.5 -2.7 0.1 84 0.9 SSW 17 19 9 10 - - 0.2
28/11:00pm 3.0 -1.8 0.2 82 1.1 S 15 20 8 11 - - 0.2
28/10:30pm 2.5 -2.3 0.1 84 0.9 S 15 19 8 10 - - 0.2
28/10:00pm 2.0 -3.2 0.2 88 0.7 S 17 19 9 10 - - 0.2
28/09:30pm 2.6 -2.2 0.3 85 0.9 S 15 17 8 9 - - 0.2
28/09:00pm 2.8 -1.6 0.5 85 0.9 S 13 17 7 9 - - 0.2
28/08:30pm 3.8 -1.0 0.3 78 1.4 SSW 15 17 8 9 - - 0.2
28/08:00pm 4.3 -0.5 0.5 76 1.5 SSW 15 19 8 10 - - 0.2
28/07:30pm 3.8 -1.3 0.7 80 1.2 SSW 17 22 9 12 - - 0.2
28/07:00pm 4.5 -0.6 0.6 76 1.5 SW 17 20 9 11 - - 0.2
28/06:30pm 4.7 -0.4 0.7 75 1.6 SSW 17 24 9 13 - - 0.2

Other Formats:

Comma delimited format used in spreadsheet applications
http://www.bom.gov.au/fwo/IDT60801/IDT60801.95956.axf

JavaScript Object Notation format (JSON) in row-major order
http://www.bom.gov.au/fwo/IDT60801/IDT60801.95956.json